Time;durP1;ratioP1;P1;durP2;ratioP2;P2;SDS_P1;SDS_P2;PMS_P1;PMS_P2;Temp;Humidity;BMP_temperature;BMP_pressure;BME280_temperature;BME280_humidity;BME280_pressure;Samples;Min_cycle;Max_cycle;Signal;HPM_P1;HPM_P2
2024/02/16 00:00:13;;;;;;;1.23;1.02;;;12.50;99.90;;;;;;5039410;28;20514;-33
2024/02/16 00:02:40;;;;;;;1.13;1.00;;;12.50;99.90;;;;;;5036543;28;20226;-33
2024/02/16 00:05:07;;;;;;;1.65;1.00;;;12.50;99.90;;;;;;5039687;28;20060;-33
2024/02/16 00:07:34;;;;;;;1.60;1.10;;;12.50;99.90;;;;;;5039034;28;20032;-37
2024/02/16 00:09:59;;;;;;;1.63;0.93;;;12.50;99.90;;;;;;5038904;28;20218;-36
2024/02/16 00:12:25;;;;;;;2.90;1.20;;;12.50;99.90;;;;;;5039283;28;20025;-35
2024/02/16 00:14:51;;;;;;;1.35;1.00;;;12.50;99.90;;;;;;5039833;28;20222;-35
2024/02/16 00:17:17;;;;;;;1.75;1.30;;;12.50;99.90;;;;;;5037462;28;20039;-36
2024/02/16 00:19:42;;;;;;;1.40;0.90;;;12.50;99.90;;;;;;5039536;28;20044;-37
2024/02/16 00:22:08;;;;;;;2.10;1.13;;;12.50;99.90;;;;;;5040019;28;20049;-39
2024/02/16 00:24:36;;;;;;;1.35;1.00;;;12.50;99.90;;;;;;5038983;28;20041;-37
2024/02/16 00:27:05;;;;;;;1.52;1.05;;;12.50;99.90;;;;;;5038171;28;20021;-33
2024/02/16 00:29:31;;;;;;;1.48;1.20;;;12.50;99.90;;;;;;5039330;28;20071;-37
2024/02/16 00:31:59;;;;;;;2.50;1.10;;;12.50;99.90;;;;;;5038309;28;20126;-38
2024/02/16 00:34:25;;;;;;;1.35;1.00;;;12.40;99.90;;;;;;5039696;28;20029;-36
2024/02/16 00:36:50;;;;;;;1.83;1.30;;;12.40;99.90;;;;;;5037965;28;20031;-36
2024/02/16 00:39:16;;;;;;;1.60;1.10;;;12.40;99.90;;;;;;5031568;28;20498;-37
2024/02/16 00:41:41;;;;;;;2.00;1.20;;;12.40;99.90;;;;;;5038613;28;20039;-37
2024/02/16 00:44:07;;;;;;;1.17;1.08;;;12.30;99.90;;;;;;5030579;28;20676;-38
2024/02/16 00:46:36;;;;;;;2.33;1.40;;;12.30;99.90;;;;;;5023588;28;20183;-36
2024/02/16 00:49:01;;;;;;;1.40;1.30;;;12.30;99.90;;;;;;5039163;28;20037;-36
2024/02/16 00:51:30;;;;;;;3.22;1.25;;;12.30;99.90;;;;;;5039065;28;20031;-34
2024/02/16 00:53:55;;;;;;;2.10;1.30;;;12.30;99.90;;;;;;5032913;28;20036;-35
2024/02/16 00:56:22;;;;;;;1.65;1.15;;;12.20;99.90;;;;;;5038203;28;20025;-37
2024/02/16 00:58:48;;;;;;;2.70;1.50;;;12.20;99.90;;;;;;5038791;28;20044;-36
2024/02/16 01:01:14;;;;;;;1.63;1.27;;;12.20;99.90;;;;;;5039040;28;20829;-37
2024/02/16 01:03:39;;;;;;;2.47;1.38;;;12.20;99.90;;;;;;5039522;28;20085;-37
2024/02/16 01:06:06;;;;;;;1.30;1.20;;;12.20;99.90;;;;;;5038930;28;20111;-37
2024/02/16 01:08:32;;;;;;;2.22;1.30;;;12.10;99.90;;;;;;5037397;28;20040;-32
2024/02/16 01:10:58;;;;;;;1.80;1.35;;;12.20;99.90;;;;;;5038444;28;20152;-35
2024/02/16 01:13:24;;;;;;;2.88;1.27;;;12.20;99.90;;;;;;5038624;28;20036;-37
2024/02/16 01:15:50;;;;;;;2.17;1.30;;;12.20;99.90;;;;;;5039056;28;20037;-35
2024/02/16 01:18:15;;;;;;;1.55;1.35;;;12.20;99.90;;;;;;5037509;28;20044;-34
2024/02/16 01:20:41;;;;;;;1.30;1.20;;;12.20;99.90;;;;;;5038307;28;20033;-36
2024/02/16 01:23:06;;;;;;;1.17;0.95;;;12.20;99.90;;;;;;5038649;28;20846;-33
2024/02/16 01:25:32;;;;;;;1.38;1.15;;;12.20;99.90;;;;;;5038186;28;20029;-33
2024/02/16 01:27:58;;;;;;;2.25;1.20;;;12.20;99.90;;;;;;5038053;28;20025;-35
2024/02/16 01:30:24;;;;;;;1.20;1.08;;;12.20;99.90;;;;;;5039371;28;20098;-36
2024/02/16 01:32:50;;;;;;;1.20;1.10;;;12.20;99.90;;;;;;5038225;28;20140;-34
2024/02/16 01:35:16;;;;;;;1.20;1.10;;;12.20;99.90;;;;;;5037066;28;20029;-36
2024/02/16 01:37:42;;;;;;;1.25;1.00;;;12.10;99.90;;;;;;5040206;28;20053;-38
2024/02/16 01:40:13;;;;;;;1.85;1.10;;;12.10;99.90;;;;;;5038458;28;20494;-36
2024/02/16 01:42:40;;;;;;;2.05;1.33;;;12.10;99.90;;;;;;5037942;28;20055;-35
2024/02/16 01:45:08;;;;;;;3.13;1.63;;;12.10;99.90;;;;;;5038354;28;20079;-37
2024/02/16 01:47:34;;;;;;;2.13;1.45;;;12.10;99.90;;;;;;5037940;28;20025;-35
2024/02/16 01:50:00;;;;;;;2.13;1.52;;;12.00;99.90;;;;;;5038761;28;20043;-35
2024/02/16 01:52:26;;;;;;;2.63;1.92;;;12.00;99.90;;;;;;5039080;28;20456;-35
2024/02/16 01:54:51;;;;;;;3.40;1.95;;;12.00;99.90;;;;;;5038555;28;20025;-34
2024/02/16 01:57:17;;;;;;;4.35;2.47;;;12.00;99.90;;;;;;5037789;28;20460;-37
2024/02/16 01:59:43;;;;;;;4.20;2.17;;;11.90;99.90;;;;;;5038962;28;20037;-37
2024/02/16 02:02:08;;;;;;;2.95;2.28;;;11.90;99.90;;;;;;5038486;28;20025;-36
2024/02/16 02:04:34;;;;;;;3.75;2.45;;;11.90;99.90;;;;;;5039033;28;20013;-34
2024/02/16 02:06:59;;;;;;;2.20;1.92;;;11.90;99.90;;;;;;5037940;28;20471;-33
2024/02/16 02:09:25;;;;;;;4.07;2.53;;;11.90;99.90;;;;;;5038638;28;20032;-31
2024/02/16 02:11:51;;;;;;;4.45;2.08;;;11.90;99.90;;;;;;5038154;28;20476;-36
2024/02/16 02:14:17;;;;;;;3.25;2.20;;;11.90;99.90;;;;;;5038121;28;20095;-35
2024/02/16 02:16:43;;;;;;;2.20;1.75;;;11.90;99.90;;;;;;5039692;28;20132;-37
2024/02/16 02:19:08;;;;;;;2.08;1.88;;;11.90;99.90;;;;;;5041878;28;20079;-36
2024/02/16 02:21:34;;;;;;;2.58;1.70;;;11.90;99.90;;;;;;5041226;28;20024;-36
2024/02/16 02:23:59;;;;;;;3.95;1.80;;;11.90;99.90;;;;;;5041359;28;20051;-35
2024/02/16 02:26:25;;;;;;;2.45;1.63;;;11.90;99.90;;;;;;5041297;28;20071;-36
2024/02/16 02:28:50;;;;;;;1.77;1.48;;;11.90;99.90;;;;;;5039493;28;20029;-35
2024/02/16 02:31:16;;;;;;;3.00;1.60;;;11.80;99.90;;;;;;5041476;28;20472;-35
2024/02/16 02:33:42;;;;;;;2.33;1.55;;;11.90;99.90;;;;;;5041691;28;20060;-32
2024/02/16 02:36:07;;;;;;;1.80;1.42;;;11.80;99.90;;;;;;5041446;28;20017;-36
2024/02/16 02:38:33;;;;;;;2.33;1.50;;;11.80;99.90;;;;;;5040956;28;20357;-38
2024/02/16 02:40:59;;;;;;;2.55;1.50;;;11.80;99.90;;;;;;5041806;28;20024;-36
2024/02/16 02:43:24;;;;;;;2.88;1.50;;;11.90;99.90;;;;;;5039078;28;20037;-33
2024/02/16 02:45:50;;;;;;;1.70;1.52;;;11.80;99.90;;;;;;5040443;28;20017;-36
2024/02/16 02:48:15;;;;;;;1.83;1.30;;;11.90;99.90;;;;;;5040973;28;20040;-36
2024/02/16 02:50:41;;;;;;;1.42;1.30;;;11.90;99.90;;;;;;5040150;28;20036;-37
2024/02/16 02:53:07;;;;;;;1.38;1.27;;;11.90;99.90;;;;;;5041202;28;20051;-38
2024/02/16 02:55:32;;;;;;;3.22;1.60;;;11.90;99.90;;;;;;5040903;28;20025;-37
2024/02/16 02:57:58;;;;;;;1.60;1.20;;;11.90;99.90;;;;;;5039868;28;20273;-37
2024/02/16 03:00:23;;;;;;;1.40;1.30;;;11.80;99.90;;;;;;5041426;28;20036;-38
2024/02/16 03:02:49;;;;;;;3.03;1.60;;;11.80;99.90;;;;;;5040960;28;20029;-36
2024/02/16 03:05:19;;;;;;;1.85;1.42;;;11.80;99.90;;;;;;5040163;28;20024;-35
2024/02/16 03:07:45;;;;;;;2.03;1.48;;;11.80;99.90;;;;;;5037872;28;20043;-36
2024/02/16 03:10:11;;;;;;;1.95;1.65;;;11.80;99.90;;;;;;5020722;28;20045;-34
2024/02/16 03:12:37;;;;;;;1.25;1.15;;;11.80;99.90;;;;;;5033682;28;20052;-35
2024/02/16 03:15:03;;;;;;;1.92;1.50;;;11.80;99.90;;;;;;5040248;28;20041;-36
2024/02/16 03:17:31;;;;;;;2.38;1.27;;;11.80;99.90;;;;;;5039751;28;20025;-33
2024/02/16 03:19:57;;;;;;;1.85;1.40;;;11.80;99.90;;;;;;5040358;28;20156;-36
2024/02/16 03:22:22;;;;;;;2.30;1.67;;;11.80;99.90;;;;;;5040191;28;20025;-34
2024/02/16 03:24:48;;;;;;;2.08;1.38;;;11.80;99.90;;;;;;5041647;28;20143;-36
2024/02/16 03:27:14;;;;;;;2.53;1.48;;;11.80;99.90;;;;;;5039211;28;20033;-37
2024/02/16 03:29:39;;;;;;;1.23;1.13;;;11.80;99.90;;;;;;5040001;28;20028;-33
2024/02/16 03:32:05;;;;;;;2.17;1.30;;;11.80;99.90;;;;;;5041366;28;20037;-34
2024/02/16 03:34:30;;;;;;;1.30;1.20;;;11.80;99.90;;;;;;5039604;28;20029;-36
2024/02/16 03:36:56;;;;;;;1.73;1.38;;;11.90;99.90;;;;;;5041089;28;20031;-35
2024/02/16 03:39:22;;;;;;;1.30;1.20;;;11.80;99.90;;;;;;5039653;28;20043;-35
2024/02/16 03:41:48;;;;;;;1.60;1.38;;;11.80;99.90;;;;;;5037926;28;20029;-39
2024/02/16 03:44:15;;;;;;;1.92;1.17;;;11.80;99.90;;;;;;5038239;28;20036;-36
2024/02/16 03:46:41;;;;;;;1.45;1.30;;;11.80;99.90;;;;;;5039435;28;20033;-32
2024/02/16 03:49:07;;;;;;;2.15;1.50;;;11.80;99.90;;;;;;5039666;28;20757;-36
2024/02/16 03:51:33;;;;;;;1.92;1.30;;;11.70;99.90;;;;;;5040565;28;20040;-33
2024/02/16 03:53:59;;;;;;;1.67;1.40;;;11.70;99.90;;;;;;5039140;28;20052;-35
2024/02/16 03:56:27;;;;;;;1.95;1.50;;;11.60;99.90;;;;;;5040666;28;20183;-36
2024/02/16 03:58:53;;;;;;;1.70;1.20;;;11.60;99.90;;;;;;5039834;28;20073;-35
2024/02/16 04:01:18;;;;;;;1.95;1.50;;;11.60;99.90;;;;;;5038535;28;20131;-33
2024/02/16 04:03:44;;;;;;;2.85;1.20;;;11.60;99.90;;;;;;5040366;28;20060;-36
2024/02/16 04:06:09;;;;;;;1.58;1.30;;;11.50;99.90;;;;;;5039199;28;20837;-36
2024/02/16 04:08:35;;;;;;;1.45;1.33;;;11.50;99.90;;;;;;5039300;28;20480;-32
2024/02/16 04:11:01;;;;;;;1.88;1.48;;;11.50;99.90;;;;;;5039351;28;20128;-37
2024/02/16 04:13:26;;;;;;;1.55;1.45;;;11.60;99.90;;;;;;5039714;28;20632;-36
2024/02/16 04:15:52;;;;;;;1.40;1.17;;;11.60;99.90;;;;;;5039663;28;20047;-36
2024/02/16 04:18:18;;;;;;;1.40;1.30;;;11.60;99.90;;;;;;5039994;28;20048;-35
2024/02/16 04:20:44;;;;;;;1.95;1.42;;;11.60;99.90;;;;;;5040474;28;20447;-33
2024/02/16 04:23:09;;;;;;;1.40;1.27;;;11.60;99.90;;;;;;5038586;28;20535;-35
2024/02/16 04:25:35;;;;;;;1.85;1.40;;;11.60;99.90;;;;;;5039203;28;20083;-36
2024/02/16 04:28:01;;;;;;;1.48;1.30;;;11.60;99.90;;;;;;5040073;28;20039;-36
2024/02/16 04:30:26;;;;;;;3.58;1.65;;;11.60;99.90;;;;;;5036366;28;21388;-38
2024/02/16 04:32:52;;;;;;;2.03;1.30;;;11.60;99.90;;;;;;5037902;28;20518;-36
2024/02/16 04:35:18;;;;;;;2.10;1.45;;;11.60;99.90;;;;;;5037890;28;20021;-35
2024/02/16 04:37:44;;;;;;;1.65;1.33;;;11.70;99.90;;;;;;5037126;28;20090;-33
2024/02/16 04:40:11;;;;;;;1.58;1.05;;;11.70;99.90;;;;;;5037760;28;20029;-37
2024/02/16 04:42:38;;;;;;;1.58;1.40;;;11.80;99.90;;;;;;5038159;28;20036;-37
2024/02/16 04:45:04;;;;;;;2.42;1.33;;;11.80;99.90;;;;;;5037791;28;20027;-34
2024/02/16 04:47:29;;;;;;;1.60;1.23;;;11.90;99.90;;;;;;5038064;28;20082;-38
2024/02/16 04:49:58;;;;;;;1.40;1.30;;;11.90;99.90;;;;;;5039406;28;20050;-35
2024/02/16 04:52:24;;;;;;;1.58;1.13;;;11.90;99.90;;;;;;5039473;28;20380;-33
2024/02/16 04:54:49;;;;;;;1.30;1.20;;;12.00;99.90;;;;;;5040236;28;20452;-32
2024/02/16 04:57:15;;;;;;;1.75;1.33;;;12.00;99.90;;;;;;5038976;28;20029;-35
2024/02/16 04:59:43;;;;;;;1.98;1.40;;;12.00;99.90;;;;;;5038867;28;20039;-35
2024/02/16 05:02:09;;;;;;;1.42;1.30;;;12.00;99.90;;;;;;5039820;28;20017;-37
2024/02/16 05:04:37;;;;;;;1.88;1.45;;;12.10;99.90;;;;;;5039182;28;20021;-36
2024/02/16 05:07:03;;;;;;;1.40;1.30;;;12.10;99.90;;;;;;5037941;28;20024;-35
2024/02/16 05:09:34;;;;;;;1.40;1.30;;;12.10;99.90;;;;;;5039156;28;20033;-35
2024/02/16 05:12:00;;;;;;;1.80;1.10;;;12.20;99.90;;;;;;5038189;28;20033;-35
2024/02/16 05:14:25;;;;;;;2.50;1.40;;;12.20;99.90;;;;;;5038951;28;20341;-37
2024/02/16 05:16:51;;;;;;;1.48;1.33;;;12.20;99.90;;;;;;5038919;28;20116;-36
2024/02/16 05:19:17;;;;;;;1.27;1.17;;;12.20;99.90;;;;;;5038192;28;20053;-34
2024/02/16 05:21:42;;;;;;;1.20;1.10;;;12.20;99.90;;;;;;5039042;28;20052;-37
2024/02/16 05:24:08;;;;;;;1.40;1.30;;;12.20;99.90;;;;;;5038248;28;20111;-35
2024/02/16 05:26:34;;;;;;;2.00;1.55;;;12.20;99.90;;;;;;5037330;28;20029;-37
2024/02/16 05:28:59;;;;;;;1.73;1.50;;;12.20;99.90;;;;;;5038935;28;20609;-37
2024/02/16 05:31:25;;;;;;;1.83;1.20;;;12.20;99.90;;;;;;5038573;28;20061;-34
2024/02/16 05:33:51;;;;;;;2.03;1.65;;;12.20;99.90;;;;;;5038405;28;20080;-37
2024/02/16 05:36:27;;;;;;;1.45;1.35;;;12.20;99.90;;;;;;5039042;28;20040;-38
2024/02/16 05:38:55;;;;;;;1.45;1.35;;;12.20;99.90;;;;;;5027366;28;20494;-37
2024/02/16 05:41:21;;;;;;;1.45;1.35;;;12.30;99.90;;;;;;5038604;28;20121;-37
2024/02/16 05:43:48;;;;;;;1.83;1.50;;;12.30;99.90;;;;;;5039146;28;20460;-37
2024/02/16 05:46:14;;;;;;;1.58;1.38;;;12.20;99.90;;;;;;5037979;28;20041;-37
2024/02/16 05:48:40;;;;;;;1.38;1.27;;;12.20;99.90;;;;;;5038069;28;20017;-37
2024/02/16 05:51:06;;;;;;;1.60;1.27;;;12.30;99.90;;;;;;5039230;28;20101;-37
2024/02/16 05:53:35;;;;;;;1.65;1.55;;;12.20;99.90;;;;;;5042387;28;20044;-35
2024/02/16 05:56:01;;;;;;;1.70;1.60;;;12.30;99.90;;;;;;5042891;28;20464;-37
2024/02/16 05:58:27;;;;;;;1.40;1.30;;;12.20;99.90;;;;;;5042566;28;20110;-36
2024/02/16 06:00:55;;;;;;;1.85;1.30;;;12.30;99.90;;;;;;5040855;28;20767;-31
2024/02/16 06:03:21;;;;;;;1.60;1.27;;;12.20;99.90;;;;;;5042018;28;20029;-35
2024/02/16 06:05:47;;;;;;;3.22;1.40;;;12.20;99.90;;;;;;5042272;28;20471;-36
2024/02/16 06:08:13;;;;;;;1.60;1.40;;;12.20;99.90;;;;;;5041529;28;20110;-37
2024/02/16 06:10:39;;;;;;;2.15;1.40;;;12.30;99.90;;;;;;5042260;28;20123;-36
2024/02/16 06:13:06;;;;;;;1.92;1.13;;;12.20;99.90;;;;;;5042218;28;20029;-35
2024/02/16 06:15:33;;;;;;;2.35;1.67;;;12.20;99.90;;;;;;5041383;28;20079;-38
2024/02/16 06:17:59;;;;;;;1.63;1.52;;;12.20;99.90;;;;;;5041680;28;20025;-31
2024/02/16 06:20:25;;;;;;;2.47;1.50;;;12.20;99.90;;;;;;5041721;28;20035;-38
2024/02/16 06:22:51;;;;;;;1.88;1.50;;;12.20;99.90;;;;;;5041781;28;20017;-36
2024/02/16 06:25:16;;;;;;;1.75;1.40;;;12.20;99.90;;;;;;5041885;28;20033;-36
2024/02/16 06:27:42;;;;;;;2.35;1.50;;;12.30;99.90;;;;;;5041644;28;20021;-36
2024/02/16 06:30:12;;;;;;;1.70;1.33;;;12.20;99.90;;;;;;5037197;28;20033;-38
2024/02/16 06:32:38;;;;;;;1.50;1.35;;;12.30;99.90;;;;;;5041980;28;20052;-33
2024/02/16 06:35:04;;;;;;;1.77;1.60;;;12.30;99.90;;;;;;5042429;28;20614;-35
2024/02/16 06:37:29;;;;;;;1.85;1.27;;;12.30;99.90;;;;;;5040511;28;20453;-38
2024/02/16 06:39:55;;;;;;;1.73;1.63;;;12.30;99.90;;;;;;5041365;28;20479;-38
2024/02/16 06:42:21;;;;;;;1.52;1.30;;;12.40;99.90;;;;;;5042419;28;20036;-33
2024/02/16 06:44:46;;;;;;;2.22;1.65;;;12.40;99.90;;;;;;5042460;28;20025;-38
2024/02/16 06:47:12;;;;;;;2.92;1.55;;;12.40;99.90;;;;;;5041389;28;20032;-38
2024/02/16 06:49:37;;;;;;;1.60;1.40;;;12.40;99.90;;;;;;5041794;28;20578;-38
2024/02/16 06:52:04;;;;;;;2.38;1.40;;;12.50;99.90;;;;;;5041343;28;20036;-38
2024/02/16 06:54:30;;;;;;;1.65;1.42;;;12.40;99.90;;;;;;5041039;28;20362;-38
2024/02/16 06:56:55;;;;;;;2.08;1.50;;;12.40;99.90;;;;;;5040884;28;20850;-35
2024/02/16 06:59:21;;;;;;;2.70;2.50;;;12.50;99.90;;;;;;5041110;28;20377;-37
2024/02/16 07:01:46;;;;;;;1.60;1.50;;;12.50;99.90;;;;;;5040105;28;20098;-36
2024/02/16 07:04:12;;;;;;;1.52;1.40;;;12.50;99.90;;;;;;5040120;28;20025;-36
2024/02/16 07:06:38;;;;;;;2.15;1.70;;;12.50;99.90;;;;;;5040651;28;20047;-37
2024/02/16 07:09:04;;;;;;;1.65;1.40;;;12.50;99.90;;;;;;5038149;28;20107;-38
2024/02/16 07:11:29;;;;;;;1.92;1.60;;;12.50;99.90;;;;;;5038974;28;20045;-35
2024/02/16 07:13:55;;;;;;;2.40;1.90;;;12.50;99.90;;;;;;5040059;28;20032;-36
2024/02/16 07:16:21;;;;;;;3.10;1.65;;;12.50;99.90;;;;;;5040059;28;20041;-37
2024/02/16 07:18:46;;;;;;;1.77;1.55;;;12.50;99.90;;;;;;5040140;28;20540;-34
2024/02/16 07:21:12;;;;;;;2.60;2.03;;;12.50;99.90;;;;;;5039839;28;20736;-35
2024/02/16 07:23:38;;;;;;;1.90;1.60;;;12.50;99.90;;;;;;5038370;28;20198;-37
2024/02/16 07:26:04;;;;;;;2.17;1.58;;;12.50;99.90;;;;;;5036998;28;20021;-36
2024/02/16 07:28:31;;;;;;;1.60;1.50;;;12.60;99.90;;;;;;5035807;28;20037;-36
2024/02/16 07:30:57;;;;;;;1.85;1.40;;;12.60;99.90;;;;;;5037015;28;20107;-36
2024/02/16 07:33:24;;;;;;;2.58;1.67;;;12.60;99.90;;;;;;5037018;28;20080;-36
2024/02/16 07:35:50;;;;;;;1.83;1.55;;;12.60;99.90;;;;;;5038357;28;20017;-37
2024/02/16 07:38:16;;;;;;;1.70;1.60;;;12.70;99.90;;;;;;5039061;28;20388;-33
2024/02/16 07:40:41;;;;;;;2.88;2.00;;;12.60;99.90;;;;;;5039949;28;20032;-36
2024/02/16 07:43:08;;;;;;;1.90;1.40;;;12.70;99.90;;;;;;5040398;28;20027;-35
2024/02/16 07:45:34;;;;;;;2.10;1.75;;;12.70;99.90;;;;;;5039913;28;20119;-37
2024/02/16 07:48:04;;;;;;;2.35;1.90;;;12.70;99.90;;;;;;5039765;28;20023;-34
2024/02/16 07:50:36;;;;;;;2.13;1.77;;;12.70;99.90;;;;;;5039640;28;20037;-36
2024/02/16 07:53:02;;;;;;;3.03;1.83;;;12.80;99.90;;;;;;5040500;28;20029;-35
2024/02/16 07:55:27;;;;;;;2.42;1.60;;;12.80;99.90;;;;;;5038999;28;20302;-36
2024/02/16 07:57:53;;;;;;;1.88;1.65;;;12.80;99.90;;;;;;5040237;28;20025;-36
2024/02/16 08:00:19;;;;;;;2.20;1.92;;;12.90;99.90;;;;;;5038673;28;20796;-36
2024/02/16 08:02:44;;;;;;;1.90;1.80;;;12.90;99.90;;;;;;5039384;28;20017;-36
2024/02/16 08:05:13;;;;;;;1.95;1.60;;;12.90;99.90;;;;;;5039062;28;20040;-37
2024/02/16 08:07:44;;;;;;;2.72;1.80;;;12.90;99.90;;;;;;5027804;28;20106;-37
2024/02/16 08:10:10;;;;;;;2.03;1.73;;;12.90;99.90;;;;;;5025408;28;20049;-37
2024/02/16 08:12:36;;;;;;;2.45;1.65;;;12.90;99.90;;;;;;5039701;28;20055;-33
2024/02/16 08:15:06;;;;;;;2.90;1.98;;;13.00;99.90;;;;;;5036223;28;20123;-36
2024/02/16 08:17:34;;;;;;;2.22;1.88;;;13.00;99.90;;;;;;5038177;28;20037;-35
2024/02/16 08:19:59;;;;;;;2.58;2.10;;;13.00;99.90;;;;;;5039134;28;20446;-35
2024/02/16 08:22:25;;;;;;;2.22;1.90;;;13.10;99.90;;;;;;5038726;28;20013;-33
2024/02/16 08:24:51;;;;;;;2.53;1.70;;;13.10;99.90;;;;;;5039102;28;20119;-37
2024/02/16 08:27:17;;;;;;;2.22;1.70;;;13.10;99.90;;;;;;5038748;28;20095;-36
2024/02/16 08:29:43;;;;;;;1.95;1.83;;;13.10;99.90;;;;;;5038541;28;20119;-36
2024/02/16 08:32:09;;;;;;;1.75;1.45;;;13.20;99.90;;;;;;5025657;28;20025;-37
2024/02/16 08:34:36;;;;;;;2.05;1.85;;;13.20;99.90;;;;;;5039045;28;20060;-36
2024/02/16 08:37:04;;;;;;;2.30;1.67;;;13.20;99.90;;;;;;5038843;28;20037;-36
2024/02/16 08:39:30;;;;;;;3.17;2.05;;;13.30;99.90;;;;;;5038490;28;20813;-38
2024/02/16 08:41:59;;;;;;;2.00;1.60;;;13.30;99.90;;;;;;5038205;28;20055;-39
2024/02/16 08:44:26;;;;;;;2.03;1.75;;;13.40;99.90;;;;;;5036960;28;20043;-40
2024/02/16 08:46:55;;;;;;;5.63;1.95;;;13.40;99.90;;;;;;5039889;28;20029;-36
2024/02/16 08:49:21;;;;;;;3.05;1.50;;;13.40;99.90;;;;;;5038943;28;20411;-42
2024/02/16 08:51:47;;;;;;;2.25;1.70;;;13.50;99.90;;;;;;5039070;28;20815;-35
2024/02/16 08:54:13;;;;;;;2.15;1.50;;;13.40;99.90;;;;;;5037660;28;20563;-37
2024/02/16 08:56:39;;;;;;;3.15;1.75;;;13.50;99.90;;;;;;5036289;28;20040;-37
2024/02/16 08:59:07;;;;;;;2.17;1.90;;;13.50;99.90;;;;;;5036823;28;20476;-33
2024/02/16 09:01:41;;;;;;;3.40;1.92;;;13.60;99.90;;;;;;5037241;28;20025;-34
2024/02/16 09:04:07;;;;;;;3.03;2.10;;;13.60;99.90;;;;;;5037265;28;20017;-35
2024/02/16 09:06:34;;;;;;;2.85;2.60;;;13.70;99.90;;;;;;5037715;28;20025;-34
2024/02/16 09:09:00;;;;;;;2.90;2.30;;;13.70;99.90;;;;;;5038191;28;20084;-35
2024/02/16 09:11:25;;;;;;;2.67;2.10;;;13.70;99.90;;;;;;5036909;28;20924;-37
2024/02/16 09:13:51;;;;;;;3.05;2.17;;;13.70;99.90;;;;;;5038381;28;20670;-35
2024/02/16 09:16:17;;;;;;;2.05;1.85;;;13.80;99.90;;;;;;5038555;28;20029;-36
2024/02/16 09:18:43;;;;;;;3.53;2.10;;;13.70;99.90;;;;;;5038272;28;20033;-37
2024/02/16 09:21:09;;;;;;;2.40;2.08;;;13.80;99.90;;;;;;5038695;28;20622;-37
2024/02/16 09:23:35;;;;;;;2.55;2.33;;;13.80;99.90;;;;;;5037149;28;20546;-36
2024/02/16 09:26:01;;;;;;;2.75;2.10;;;13.80;99.90;;;;;;5035571;28;20045;-38
2024/02/16 09:28:30;;;;;;;2.60;2.15;;;13.80;99.90;;;;;;5041641;28;20132;-33
2024/02/16 09:30:56;;;;;;;5.20;2.47;;;13.90;99.90;;;;;;5041252;28;20056;-37
2024/02/16 09:33:24;;;;;;;2.53;2.20;;;13.90;99.90;;;;;;5041228;28;20136;-34
2024/02/16 09:35:50;;;;;;;4.47;3.17;;;14.00;99.90;;;;;;5042061;28;20037;-34
2024/02/16 09:38:16;;;;;;;2.55;2.30;;;14.00;99.90;;;;;;5041594;28;20048;-35
2024/02/16 09:40:42;;;;;;;2.70;2.00;;;14.00;99.90;;;;;;5039892;28;20256;-36
2024/02/16 09:43:07;;;;;;;3.28;2.40;;;14.00;99.90;;;;;;5040170;28;20128;-38
2024/02/16 09:45:33;;;;;;;3.88;2.45;;;14.00;99.90;;;;;;5039485;28;20029;-39
2024/02/16 09:47:59;;;;;;;2.88;2.28;;;14.10;99.90;;;;;;5040743;28;20020;-37
2024/02/16 09:50:26;;;;;;;3.90;2.40;;;14.10;99.90;;;;;;5040133;28;20143;-35
2024/02/16 09:52:54;;;;;;;3.17;2.42;;;14.10;99.90;;;;;;5040434;28;20060;-32
2024/02/16 09:55:20;;;;;;;3.35;2.50;;;14.10;99.90;;;;;;5040934;28;20051;-37
2024/02/16 09:57:45;;;;;;;3.72;3.00;;;14.10;99.90;;;;;;5040967;28;20468;-36
2024/02/16 10:00:14;;;;;;;4.32;2.97;;;14.10;99.90;;;;;;5040976;28;20140;-34
2024/02/16 10:02:44;;;;;;;3.03;2.40;;;14.10;99.90;;;;;;5030918;28;20044;-37
2024/02/16 10:05:15;;;;;;;3.65;2.55;;;14.20;99.90;;;;;;5040229;28;20499;-36
2024/02/16 10:07:41;;;;;;;3.65;2.80;;;14.20;99.90;;;;;;5040569;28;20029;-33
2024/02/16 10:10:19;;;;;;;4.00;2.55;;;14.20;99.90;;;;;;5041063;28;20102;-37
2024/02/16 10:12:45;;;;;;;5.00;2.63;;;14.20;99.90;;;;;;5038949;28;20021;-36
2024/02/16 10:15:11;;;;;;;3.88;2.78;;;14.30;99.90;;;;;;5039577;28;20476;-37
2024/02/16 10:17:37;;;;;;;4.72;2.60;;;14.30;99.90;;;;;;5040764;28;20071;-35
2024/02/16 10:20:06;;;;;;;3.63;2.72;;;14.30;99.90;;;;;;5041488;28;20029;-34
2024/02/16 10:22:32;;;;;;;3.42;2.38;;;14.40;99.90;;;;;;5040045;28;20484;-37
2024/02/16 10:25:12;;;;;;;2.80;2.25;;;14.40;99.90;;;;;;5040560;28;20029;-35
2024/02/16 10:27:38;;;;;;;5.22;3.05;;;14.40;99.90;;;;;;5040591;28;20026;-38
2024/02/16 10:30:09;;;;;;;3.60;2.33;;;14.40;99.90;;;;;;5039965;28;20039;-37
2024/02/16 10:32:38;;;;;;;4.47;2.33;;;14.40;99.90;;;;;;5040410;28;20162;-37
2024/02/16 10:35:06;;;;;;;3.30;2.63;;;14.30;99.90;;;;;;5020422;28;20033;-37
2024/02/16 10:37:32;;;;;;;3.92;2.90;;;14.30;99.90;;;;;;5032126;28;20029;-36
2024/02/16 10:39:59;;;;;;;3.92;2.97;;;14.20;99.90;;;;;;5037651;28;20029;-38
2024/02/16 10:42:29;;;;;;;4.15;2.83;;;14.20;99.90;;;;;;5033833;28;20046;-37
2024/02/16 10:44:55;;;;;;;2.78;2.47;;;14.20;99.90;;;;;;5039819;28;20033;-33
2024/02/16 10:47:21;;;;;;;3.67;2.30;;;14.20;99.90;;;;;;5039197;28;20029;-36
2024/02/16 10:49:46;;;;;;;3.10;2.70;;;14.20;99.90;;;;;;5039480;28;20021;-38
2024/02/16 10:52:14;;;;;;;5.53;2.80;;;14.20;99.90;;;;;;5041051;28;20032;-38
2024/02/16 10:54:41;;;;;;;3.67;2.88;;;14.20;99.90;;;;;;5041353;28;20027;-37
2024/02/16 10:57:10;;;;;;;4.05;2.75;;;14.20;99.90;;;;;;5040276;28;20379;-35
2024/02/16 10:59:47;;;;;;;3.05;2.67;;;14.20;99.90;;;;;;5030010;28;20144;-37
2024/02/16 11:02:14;;;;;;;2.90;2.03;;;14.20;99.90;;;;;;5041097;28;20159;-38
2024/02/16 11:04:40;;;;;;;4.82;3.22;;;14.10;99.90;;;;;;5040562;28;20029;-35
2024/02/16 11:07:15;;;;;;;3.78;3.00;;;14.10;99.90;;;;;;5040636;28;20879;-36
2024/02/16 11:09:41;;;;;;;3.47;2.90;;;14.10;99.90;;;;;;5039781;28;20168;-38
2024/02/16 11:12:12;;;;;;;4.57;2.75;;;14.10;99.90;;;;;;5040351;28;20863;-37
2024/02/16 11:14:40;;;;;;;5.15;2.95;;;14.10;99.90;;;;;;5035513;28;20033;-35
2024/02/16 11:17:10;;;;;;;4.68;3.00;;;14.00;99.90;;;;;;5038335;28;20090;-36
2024/02/16 11:19:36;;;;;;;6.30;3.58;;;13.90;99.90;;;;;;5039294;28;20116;-33
2024/02/16 11:22:08;;;;;;;5.45;3.72;;;14.00;99.90;;;;;;5040741;28;20754;-37
2024/02/16 11:24:35;;;;;;;5.30;3.55;;;13.90;99.90;;;;;;5039376;28;20039;-36
2024/02/16 11:27:03;;;;;;;4.20;3.67;;;13.80;99.90;;;;;;5040832;28;20033;-35
2024/02/16 11:29:33;;;;;;;6.22;3.92;;;13.80;99.90;;;;;;5039970;28;20111;-37
2024/02/16 11:32:00;;;;;;;4.70;3.67;;;13.70;99.90;;;;;;5021164;28;20104;-38
2024/02/16 11:34:27;;;;;;;6.18;4.10;;;13.60;99.90;;;;;;5034852;28;20033;-34
2024/02/16 11:36:54;;;;;;;5.20;4.43;;;13.60;99.90;;;;;;5040414;28;20033;-33
2024/02/16 11:39:20;;;;;;;6.07;4.70;;;13.60;99.90;;;;;;5036922;28;20064;-36
2024/02/16 11:41:46;;;;;;;7.65;4.82;;;13.50;99.90;;;;;;5040112;28;20056;-35
2024/02/16 11:44:16;;;;;;;5.30;4.80;;;13.50;99.90;;;;;;5040154;28;20108;-35
2024/02/16 11:46:42;;;;;;;5.63;4.68;;;13.40;99.90;;;;;;5038598;28;20090;-35
2024/02/16 11:49:08;;;;;;;5.65;4.90;;;13.40;99.90;;;;;;5038087;28;20040;-34
2024/02/16 11:51:34;;;;;;;9.27;5.93;;;13.40;99.90;;;;;;5039619;28;20027;-35
2024/02/16 11:54:00;;;;;;;6.25;5.03;;;13.40;99.90;;;;;;5037710;28;20029;-36
2024/02/16 11:56:26;;;;;;;5.90;5.30;;;13.30;99.90;;;;;;5038271;28;20029;-38
2024/02/16 11:58:52;;;;;;;8.65;5.22;;;13.30;99.90;;;;;;5039068;28;20037;-36
2024/02/16 12:01:18;;;;;;;5.35;4.82;;;13.30;99.90;;;;;;5039071;28;20035;-37
2024/02/16 12:03:43;;;;;;;6.30;5.45;;;13.30;99.90;;;;;;5037936;28;20730;-37
2024/02/16 12:06:19;;;;;;;6.40;4.68;;;13.30;99.90;;;;;;5037786;28;20021;-35
2024/02/16 12:08:44;;;;;;;5.18;4.57;;;13.30;99.90;;;;;;5038544;28;20098;-35
2024/02/16 12:11:10;;;;;;;5.28;4.28;;;13.40;99.90;;;;;;5037785;28;20049;-37
2024/02/16 12:13:35;;;;;;;5.30;4.80;;;13.40;99.90;;;;;;5038317;28;20025;-38
2024/02/16 12:16:06;;;;;;;4.70;4.20;;;13.40;99.90;;;;;;5037358;28;20035;-36
2024/02/16 12:18:32;;;;;;;5.43;4.45;;;13.40;99.90;;;;;;5030468;28;20401;-33
2024/02/16 12:20:59;;;;;;;4.18;3.70;;;13.40;99.90;;;;;;5038623;28;20052;-37
2024/02/16 12:23:25;;;;;;;4.20;3.63;;;13.40;99.90;;;;;;5039361;28;20044;-36
2024/02/16 12:25:50;;;;;;;5.47;4.05;;;13.40;99.90;;;;;;5037246;28;20064;-37
2024/02/16 12:28:17;;;;;;;4.10;3.72;;;13.40;99.90;;;;;;5038209;28;20025;-39
2024/02/16 12:30:42;;;;;;;4.57;4.07;;;13.50;99.90;;;;;;5036256;28;20065;-37
2024/02/16 12:33:08;;;;;;;5.22;4.05;;;13.40;99.90;;;;;;5038331;28;20025;-38
2024/02/16 12:35:36;;;;;;;4.47;3.83;;;13.40;99.90;;;;;;5038712;28;20589;-38
2024/02/16 12:38:02;;;;;;;4.15;3.75;;;13.40;99.90;;;;;;5037686;28;20029;-38
2024/02/16 12:40:29;;;;;;;5.05;3.90;;;13.40;99.90;;;;;;5039100;28;20037;-34
2024/02/16 12:42:54;;;;;;;4.07;3.67;;;13.40;99.90;;;;;;5037512;28;20245;-37